sensor_id;sensor_type;location;lat;lon;timestamp;P1;durP1;ratioP1;P2;durP2;ratioP2
58242;SDS011;50118;53.232;8.252;2023-03-20T00:00:32;29.60;;;14.50;;
58242;SDS011;50118;53.232;8.252;2023-03-20T00:03:00;28.95;;;15.02;;
58242;SDS011;50118;53.232;8.252;2023-03-20T00:05:27;28.67;;;13.75;;
58242;SDS011;50118;53.232;8.252;2023-03-20T00:07:54;30.25;;;13.93;;
58242;SDS011;50118;53.232;8.252;2023-03-20T00:10:20;30.58;;;13.88;;
58242;SDS011;50118;53.232;8.252;2023-03-20T00:12:47;23.67;;;11.77;;
58242;SDS011;50118;53.232;8.252;2023-03-20T00:17:50;23.27;;;12.43;;
58242;SDS011;50118;53.232;8.252;2023-03-20T00:20:16;21.50;;;10.70;;
58242;SDS011;50118;53.232;8.252;2023-03-20T00:22:41;22.58;;;11.70;;
58242;SDS011;50118;53.232;8.252;2023-03-20T00:25:08;22.45;;;11.38;;
58242;SDS011;50118;53.232;8.252;2023-03-20T00:27:38;21.85;;;11.25;;
58242;SDS011;50118;53.232;8.252;2023-03-20T00:30:09;21.02;;;11.13;;
58242;SDS011;50118;53.232;8.252;2023-03-20T00:32:43;19.95;;;10.20;;
58242;SDS011;50118;53.232;8.252;2023-03-20T00:35:30;18.98;;;9.75;;
58242;SDS011;50118;53.232;8.252;2023-03-20T00:37:56;19.85;;;10.02;;
58242;SDS011;50118;53.232;8.252;2023-03-20T00:40:26;18.15;;;9.70;;
58242;SDS011;50118;53.232;8.252;2023-03-20T00:42:57;17.80;;;9.40;;
58242;SDS011;50118;53.232;8.252;2023-03-20T00:45:24;17.42;;;9.38;;
58242;SDS011;50118;53.232;8.252;2023-03-20T00:47:51;17.02;;;9.35;;
58242;SDS011;50118;53.232;8.252;2023-03-20T00:50:21;14.40;;;8.15;;
58242;SDS011;50118;53.232;8.252;2023-03-20T00:52:48;16.90;;;8.85;;
58242;SDS011;50118;53.232;8.252;2023-03-20T00:55:15;17.08;;;9.75;;
58242;SDS011;50118;53.232;8.252;2023-03-20T00:57:43;18.73;;;9.25;;
58242;SDS011;50118;53.232;8.252;2023-03-20T01:03:02;20.48;;;10.73;;
58242;SDS011;50118;53.232;8.252;2023-03-20T01:05:36;21.30;;;10.32;;
58242;SDS011;50118;53.232;8.252;2023-03-20T01:08:01;23.27;;;10.77;;
58242;SDS011;50118;53.232;8.252;2023-03-20T01:10:29;19.20;;;9.73;;
58242;SDS011;50118;53.232;8.252;2023-03-20T01:12:57;19.40;;;10.25;;
58242;SDS011;50118;53.232;8.252;2023-03-20T01:15:26;20.73;;;10.02;;
58242;SDS011;50118;53.232;8.252;2023-03-20T01:20:23;19.20;;;10.48;;
58242;SDS011;50118;53.232;8.252;2023-03-20T01:22:52;19.33;;;9.68;;
58242;SDS011;50118;53.232;8.252;2023-03-20T01:25:18;18.30;;;9.30;;
58242;SDS011;50118;53.232;8.252;2023-03-20T01:27:46;16.63;;;9.10;;
58242;SDS011;50118;53.232;8.252;2023-03-20T01:30:19;17.15;;;8.80;;
58242;SDS011;50118;53.232;8.252;2023-03-20T01:32:49;17.58;;;9.15;;
58242;SDS011;50118;53.232;8.252;2023-03-20T01:35:16;14.50;;;8.30;;
58242;SDS011;50118;53.232;8.252;2023-03-20T01:37:46;16.75;;;8.20;;
58242;SDS011;50118;53.232;8.252;2023-03-20T01:40:25;15.40;;;7.65;;
58242;SDS011;50118;53.232;8.252;2023-03-20T01:42:51;15.93;;;8.25;;
58242;SDS011;50118;53.232;8.252;2023-03-20T01:45:19;14.15;;;7.38;;
58242;SDS011;50118;53.232;8.252;2023-03-20T01:47:48;17.38;;;8.35;;
58242;SDS011;50118;53.232;8.252;2023-03-20T01:50:22;14.40;;;7.90;;
58242;SDS011;50118;53.232;8.252;2023-03-20T01:55:46;14.80;;;7.72;;
58242;SDS011;50118;53.232;8.252;2023-03-20T01:58:17;15.73;;;8.32;;
58242;SDS011;50118;53.232;8.252;2023-03-20T02:00:45;15.70;;;7.78;;
58242;SDS011;50118;53.232;8.252;2023-03-20T02:03:13;14.68;;;7.20;;
58242;SDS011;50118;53.232;8.252;2023-03-20T02:05:40;16.08;;;8.20;;
58242;SDS011;50118;53.232;8.252;2023-03-20T02:08:15;15.57;;;7.82;;
58242;SDS011;50118;53.232;8.252;2023-03-20T02:10:48;14.98;;;7.75;;
58242;SDS011;50118;53.232;8.252;2023-03-20T02:13:14;16.08;;;8.32;;
58242;SDS011;50118;53.232;8.252;2023-03-20T02:15:57;17.45;;;9.00;;
58242;SDS011;50118;53.232;8.252;2023-03-20T02:18:23;15.60;;;7.88;;
58242;SDS011;50118;53.232;8.252;2023-03-20T02:38:11;17.63;;;9.73;;
58242;SDS011;50118;53.232;8.252;2023-03-20T02:52:29;17.55;;;9.57;;
58242;SDS011;50118;53.232;8.252;2023-03-20T03:00:44;19.40;;;9.13;;
58242;SDS011;50118;53.232;8.252;2023-03-20T03:03:23;20.27;;;9.32;;
58242;SDS011;50118;53.232;8.252;2023-03-20T03:08:32;17.10;;;8.93;;
58242;SDS011;50118;53.232;8.252;2023-03-20T03:11:05;21.08;;;9.52;;
58242;SDS011;50118;53.232;8.252;2023-03-20T03:13:33;17.83;;;8.88;;
58242;SDS011;50118;53.232;8.252;2023-03-20T03:16:08;17.88;;;8.98;;
58242;SDS011;50118;53.232;8.252;2023-03-20T03:18:38;18.13;;;9.35;;
58242;SDS011;50118;53.232;8.252;2023-03-20T03:21:06;19.20;;;8.60;;
58242;SDS011;50118;53.232;8.252;2023-03-20T03:23:45;15.73;;;8.70;;
58242;SDS011;50118;53.232;8.252;2023-03-20T03:26:23;16.55;;;8.98;;
58242;SDS011;50118;53.232;8.252;2023-03-20T03:28:56;17.40;;;8.50;;
58242;SDS011;50118;53.232;8.252;2023-03-20T03:31:25;15.20;;;8.18;;
58242;SDS011;50118;53.232;8.252;2023-03-20T03:33:54;17.70;;;8.65;;
58242;SDS011;50118;53.232;8.252;2023-03-20T03:39:35;17.65;;;9.05;;
58242;SDS011;50118;53.232;8.252;2023-03-20T03:44:50;18.48;;;8.48;;
58242;SDS011;50118;53.232;8.252;2023-03-20T03:47:23;16.60;;;8.70;;
58242;SDS011;50118;53.232;8.252;2023-03-20T03:49:57;16.80;;;9.02;;
58242;SDS011;50118;53.232;8.252;2023-03-20T03:52:26;14.48;;;8.55;;
58242;SDS011;50118;53.232;8.252;2023-03-20T03:57:27;15.43;;;8.07;;
58242;SDS011;50118;53.232;8.252;2023-03-20T03:59:59;16.20;;;8.55;;
58242;SDS011;50118;53.232;8.252;2023-03-20T04:02:27;15.48;;;7.78;;
58242;SDS011;50118;53.232;8.252;2023-03-20T04:04:53;16.17;;;7.57;;
58242;SDS011;50118;53.232;8.252;2023-03-20T04:07:19;16.98;;;8.43;;
58242;SDS011;50118;53.232;8.252;2023-03-20T04:09:45;15.30;;;8.25;;
58242;SDS011;50118;53.232;8.252;2023-03-20T04:12:24;19.25;;;8.30;;
58242;SDS011;50118;53.232;8.252;2023-03-20T04:14:51;16.33;;;7.95;;
58242;SDS011;50118;53.232;8.252;2023-03-20T04:17:17;14.75;;;7.72;;
58242;SDS011;50118;53.232;8.252;2023-03-20T04:19:42;15.23;;;7.78;;
58242;SDS011;50118;53.232;8.252;2023-03-20T04:22:08;13.38;;;7.65;;
58242;SDS011;50118;53.232;8.252;2023-03-20T04:24:33;13.90;;;7.45;;
58242;SDS011;50118;53.232;8.252;2023-03-20T04:26:58;14.82;;;7.45;;
58242;SDS011;50118;53.232;8.252;2023-03-20T04:29:24;14.65;;;7.60;;
58242;SDS011;50118;53.232;8.252;2023-03-20T04:31:50;16.55;;;8.07;;
58242;SDS011;50118;53.232;8.252;2023-03-20T04:34:15;13.98;;;7.25;;
58242;SDS011;50118;53.232;8.252;2023-03-20T04:36:42;15.07;;;7.38;;
58242;SDS011;50118;53.232;8.252;2023-03-20T04:39:07;13.68;;;6.70;;
58242;SDS011;50118;53.232;8.252;2023-03-20T04:41:32;13.45;;;7.05;;
58242;SDS011;50118;53.232;8.252;2023-03-20T04:43:58;11.55;;;6.32;;
58242;SDS011;50118;53.232;8.252;2023-03-20T04:46:23;13.27;;;6.75;;
58242;SDS011;50118;53.232;8.252;2023-03-20T04:48:49;12.15;;;6.53;;
58242;SDS011;50118;53.232;8.252;2023-03-20T04:51:14;11.10;;;6.10;;
58242;SDS011;50118;53.232;8.252;2023-03-20T04:53:40;11.02;;;5.85;;
58242;SDS011;50118;53.232;8.252;2023-03-20T04:56:05;13.18;;;6.85;;
58242;SDS011;50118;53.232;8.252;2023-03-20T04:58:31;14.65;;;7.28;;
58242;SDS011;50118;53.232;8.252;2023-03-20T05:00:57;13.35;;;7.10;;
58242;SDS011;50118;53.232;8.252;2023-03-20T05:03:22;13.90;;;7.10;;
58242;SDS011;50118;53.232;8.252;2023-03-20T05:05:48;14.65;;;7.50;;
58242;SDS011;50118;53.232;8.252;2023-03-20T05:08:13;14.52;;;7.65;;
58242;SDS011;50118;53.232;8.252;2023-03-20T05:10:38;15.60;;;7.88;;
58242;SDS011;50118;53.232;8.252;2023-03-20T05:13:04;16.08;;;8.23;;
58242;SDS011;50118;53.232;8.252;2023-03-20T05:15:30;14.95;;;8.05;;
58242;SDS011;50118;53.232;8.252;2023-03-20T05:17:55;17.05;;;8.10;;
58242;SDS011;50118;53.232;8.252;2023-03-20T05:20:21;17.70;;;7.78;;
58242;SDS011;50118;53.232;8.252;2023-03-20T05:22:49;18.65;;;8.15;;
58242;SDS011;50118;53.232;8.252;2023-03-20T05:25:15;15.60;;;8.35;;
58242;SDS011;50118;53.232;8.252;2023-03-20T05:27:41;15.35;;;7.47;;
58242;SDS011;50118;53.232;8.252;2023-03-20T05:30:09;13.40;;;7.40;;
58242;SDS011;50118;53.232;8.252;2023-03-20T05:32:35;16.10;;;7.75;;
58242;SDS011;50118;53.232;8.252;2023-03-20T05:35:00;17.02;;;8.38;;
58242;SDS011;50118;53.232;8.252;2023-03-20T05:37:26;18.70;;;8.40;;
58242;SDS011;50118;53.232;8.252;2023-03-20T05:39:51;17.08;;;8.00;;
58242;SDS011;50118;53.232;8.252;2023-03-20T05:42:17;16.48;;;8.05;;
58242;SDS011;50118;53.232;8.252;2023-03-20T05:44:42;18.60;;;8.00;;
58242;SDS011;50118;53.232;8.252;2023-03-20T05:47:07;14.63;;;8.05;;
58242;SDS011;50118;53.232;8.252;2023-03-20T05:49:33;16.15;;;7.65;;
58242;SDS011;50118;53.232;8.252;2023-03-20T05:51:58;15.32;;;7.93;;
58242;SDS011;50118;53.232;8.252;2023-03-20T05:54:23;15.82;;;7.85;;
58242;SDS011;50118;53.232;8.252;2023-03-20T05:56:49;16.55;;;8.00;;
58242;SDS011;50118;53.232;8.252;2023-03-20T05:59:14;16.65;;;8.30;;
58242;SDS011;50118;53.232;8.252;2023-03-20T06:01:39;15.60;;;8.25;;
58242;SDS011;50118;53.232;8.252;2023-03-20T06:04:05;15.15;;;7.85;;
58242;SDS011;50118;53.232;8.252;2023-03-20T06:06:32;13.13;;;7.60;;
58242;SDS011;50118;53.232;8.252;2023-03-20T06:09:01;16.95;;;7.97;;
58242;SDS011;50118;53.232;8.252;2023-03-20T06:11:28;14.68;;;7.72;;
58242;SDS011;50118;53.232;8.252;2023-03-20T06:13:53;13.82;;;7.82;;
58242;SDS011;50118;53.232;8.252;2023-03-20T06:16:19;15.27;;;7.50;;
58242;SDS011;50118;53.232;8.252;2023-03-20T06:18:45;14.35;;;8.90;;
58242;SDS011;50118;53.232;8.252;2023-03-20T06:21:11;18.17;;;7.53;;
58242;SDS011;50118;53.232;8.252;2023-03-20T06:23:37;15.43;;;7.75;;
58242;SDS011;50118;53.232;8.252;2023-03-20T06:26:02;14.13;;;8.45;;
58242;SDS011;50118;53.232;8.252;2023-03-20T06:28:28;15.20;;;7.95;;
58242;SDS011;50118;53.232;8.252;2023-03-20T06:30:54;17.35;;;8.45;;
58242;SDS011;50118;53.232;8.252;2023-03-20T06:33:19;17.75;;;8.40;;
58242;SDS011;50118;53.232;8.252;2023-03-20T06:35:46;16.48;;;8.50;;
58242;SDS011;50118;53.232;8.252;2023-03-20T06:38:12;15.30;;;8.43;;
58242;SDS011;50118;53.232;8.252;2023-03-20T06:40:37;17.02;;;8.88;;
58242;SDS011;50118;53.232;8.252;2023-03-20T06:43:03;18.88;;;8.85;;
58242;SDS011;50118;53.232;8.252;2023-03-20T06:45:29;15.75;;;8.80;;
58242;SDS011;50118;53.232;8.252;2023-03-20T06:47:54;18.88;;;8.95;;
58242;SDS011;50118;53.232;8.252;2023-03-20T06:50:20;15.05;;;8.90;;
58242;SDS011;50118;53.232;8.252;2023-03-20T06:52:46;20.55;;;9.88;;
58242;SDS011;50118;53.232;8.252;2023-03-20T06:55:11;18.67;;;9.10;;
58242;SDS011;50118;53.232;8.252;2023-03-20T06:57:37;17.73;;;8.50;;
58242;SDS011;50118;53.232;8.252;2023-03-20T07:00:03;18.52;;;9.90;;
58242;SDS011;50118;53.232;8.252;2023-03-20T07:02:29;19.52;;;8.98;;
58242;SDS011;50118;53.232;8.252;2023-03-20T07:04:54;21.30;;;9.82;;
58242;SDS011;50118;53.232;8.252;2023-03-20T07:07:20;17.48;;;9.27;;
58242;SDS011;50118;53.232;8.252;2023-03-20T07:09:46;18.00;;;9.25;;
58242;SDS011;50118;53.232;8.252;2023-03-20T07:12:12;18.33;;;9.20;;
58242;SDS011;50118;53.232;8.252;2023-03-20T07:14:38;20.25;;;9.13;;
58242;SDS011;50118;53.232;8.252;2023-03-20T07:17:05;15.45;;;8.68;;
58242;SDS011;50118;53.232;8.252;2023-03-20T07:19:33;19.48;;;9.65;;
58242;SDS011;50118;53.232;8.252;2023-03-20T07:21:59;16.55;;;9.35;;
58242;SDS011;50118;53.232;8.252;2023-03-20T07:24:26;16.30;;;8.50;;
58242;SDS011;50118;53.232;8.252;2023-03-20T07:26:52;18.15;;;9.40;;
58242;SDS011;50118;53.232;8.252;2023-03-20T07:29:17;16.63;;;8.88;;
58242;SDS011;50118;53.232;8.252;2023-03-20T07:31:43;19.73;;;8.48;;
58242;SDS011;50118;53.232;8.252;2023-03-20T07:34:08;16.17;;;8.35;;
58242;SDS011;50118;53.232;8.252;2023-03-20T07:36:34;16.20;;;8.13;;
58242;SDS011;50118;53.232;8.252;2023-03-20T07:39:00;16.92;;;8.52;;
58242;SDS011;50118;53.232;8.252;2023-03-20T07:41:25;15.35;;;7.60;;
58242;SDS011;50118;53.232;8.252;2023-03-20T07:43:51;14.10;;;7.25;;
58242;SDS011;50118;53.232;8.252;2023-03-20T07:46:16;14.35;;;7.95;;
58242;SDS011;50118;53.232;8.252;2023-03-20T07:48:42;14.02;;;7.10;;
58242;SDS011;50118;53.232;8.252;2023-03-20T07:51:07;11.52;;;6.55;;
58242;SDS011;50118;53.232;8.252;2023-03-20T07:53:33;15.55;;;7.13;;
58242;SDS011;50118;53.232;8.252;2023-03-20T07:55:58;12.45;;;6.60;;
58242;SDS011;50118;53.232;8.252;2023-03-20T07:58:24;14.07;;;6.75;;
58242;SDS011;50118;53.232;8.252;2023-03-20T08:00:50;11.90;;;6.45;;
58242;SDS011;50118;53.232;8.252;2023-03-20T08:03:15;13.82;;;6.95;;
58242;SDS011;50118;53.232;8.252;2023-03-20T08:05:41;11.90;;;6.22;;
58242;SDS011;50118;53.232;8.252;2023-03-20T08:08:07;12.80;;;6.55;;
58242;SDS011;50118;53.232;8.252;2023-03-20T08:10:33;12.32;;;6.20;;
58242;SDS011;50118;53.232;8.252;2023-03-20T08:12:58;11.98;;;6.32;;
58242;SDS011;50118;53.232;8.252;2023-03-20T08:15:23;11.63;;;6.35;;
58242;SDS011;50118;53.232;8.252;2023-03-20T08:17:49;11.18;;;5.65;;
58242;SDS011;50118;53.232;8.252;2023-03-20T08:20:14;11.65;;;6.53;;
58242;SDS011;50118;53.232;8.252;2023-03-20T08:22:41;10.95;;;5.97;;
58242;SDS011;50118;53.232;8.252;2023-03-20T08:25:08;9.55;;;5.78;;
58242;SDS011;50118;53.232;8.252;2023-03-20T08:27:34;11.40;;;6.00;;
58242;SDS011;50118;53.232;8.252;2023-03-20T08:30:00;11.65;;;5.95;;
58242;SDS011;50118;53.232;8.252;2023-03-20T08:32:26;10.02;;;5.75;;
58242;SDS011;50118;53.232;8.252;2023-03-20T08:34:51;13.10;;;6.43;;
58242;SDS011;50118;53.232;8.252;2023-03-20T08:37:19;11.93;;;6.18;;
58242;SDS011;50118;53.232;8.252;2023-03-20T08:39:45;9.27;;;5.80;;
58242;SDS011;50118;53.232;8.252;2023-03-20T08:42:11;10.50;;;6.13;;
58242;SDS011;50118;53.232;8.252;2023-03-20T08:44:37;10.57;;;6.32;;
58242;SDS011;50118;53.232;8.252;2023-03-20T08:47:02;11.15;;;6.53;;
58242;SDS011;50118;53.232;8.252;2023-03-20T08:49:29;10.57;;;6.40;;
58242;SDS011;50118;53.232;8.252;2023-03-20T08:51:55;10.55;;;6.20;;
58242;SDS011;50118;53.232;8.252;2023-03-20T08:54:21;10.15;;;6.15;;
58242;SDS011;50118;53.232;8.252;2023-03-20T08:56:47;12.13;;;5.88;;
58242;SDS011;50118;53.232;8.252;2023-03-20T08:59:12;10.45;;;5.90;;
58242;SDS011;50118;53.232;8.252;2023-03-20T09:01:37;9.48;;;5.75;;
58242;SDS011;50118;53.232;8.252;2023-03-20T09:04:03;11.05;;;6.50;;
58242;SDS011;50118;53.232;8.252;2023-03-20T09:06:29;10.32;;;6.18;;
58242;SDS011;50118;53.232;8.252;2023-03-20T09:08:55;10.85;;;5.38;;
58242;SDS011;50118;53.232;8.252;2023-03-20T09:11:23;10.55;;;5.28;;
58242;SDS011;50118;53.232;8.252;2023-03-20T09:13:49;9.38;;;5.38;;
58242;SDS011;50118;53.232;8.252;2023-03-20T09:16:14;9.57;;;5.50;;
58242;SDS011;50118;53.232;8.252;2023-03-20T09:18:40;8.98;;;5.63;;
58242;SDS011;50118;53.232;8.252;2023-03-20T09:21:06;9.32;;;5.10;;
58242;SDS011;50118;53.232;8.252;2023-03-20T09:23:31;9.52;;;5.20;;
58242;SDS011;50118;53.232;8.252;2023-03-20T09:25:57;8.98;;;5.20;;
58242;SDS011;50118;53.232;8.252;2023-03-20T09:28:22;8.93;;;5.43;;
58242;SDS011;50118;53.232;8.252;2023-03-20T09:30:48;9.93;;;5.22;;
58242;SDS011;50118;53.232;8.252;2023-03-20T09:33:13;11.70;;;5.70;;
58242;SDS011;50118;53.232;8.252;2023-03-20T09:35:39;10.57;;;5.50;;
58242;SDS011;50118;53.232;8.252;2023-03-20T09:38:05;10.40;;;5.20;;
58242;SDS011;50118;53.232;8.252;2023-03-20T09:40:48;10.00;;;5.25;;
58242;SDS011;50118;53.232;8.252;2023-03-20T09:48:48;8.93;;;5.10;;
58242;SDS011;50118;53.232;8.252;2023-03-20T09:51:45;12.55;;;5.38;;
58242;SDS011;50118;53.232;8.252;2023-03-20T09:54:27;9.32;;;4.70;;
58242;SDS011;50118;53.232;8.252;2023-03-20T09:56:54;11.50;;;5.45;;
58242;SDS011;50118;53.232;8.252;2023-03-20T09:59:21;8.85;;;5.35;;
58242;SDS011;50118;53.232;8.252;2023-03-20T10:04:19;9.25;;;4.65;;
58242;SDS011;50118;53.232;8.252;2023-03-20T10:06:44;8.25;;;4.40;;
58242;SDS011;50118;53.232;8.252;2023-03-20T10:09:20;7.82;;;4.38;;
58242;SDS011;50118;53.232;8.252;2023-03-20T10:20:10;9.02;;;4.55;;
58242;SDS011;50118;53.232;8.252;2023-03-20T10:22:52;10.63;;;4.80;;
58242;SDS011;50118;53.232;8.252;2023-03-20T10:25:31;8.20;;;4.35;;
58242;SDS011;50118;53.232;8.252;2023-03-20T10:28:05;7.00;;;4.32;;
58242;SDS011;50118;53.232;8.252;2023-03-20T10:41:39;8.70;;;4.20;;
58242;SDS011;50118;53.232;8.252;2023-03-20T10:44:54;7.55;;;3.67;;
58242;SDS011;50118;53.232;8.252;2023-03-20T10:46:59;8.93;;;4.05;;
58242;SDS011;50118;53.232;8.252;2023-03-20T10:49:35;8.18;;;3.95;;
58242;SDS011;50118;53.232;8.252;2023-03-20T10:52:08;10.40;;;4.35;;
58242;SDS011;50118;53.232;8.252;2023-03-20T10:54:39;9.25;;;4.45;;
58242;SDS011;50118;53.232;8.252;2023-03-20T10:57:09;8.63;;;4.20;;
58242;SDS011;50118;53.232;8.252;2023-03-20T10:59:49;9.27;;;4.22;;
58242;SDS011;50118;53.232;8.252;2023-03-20T11:02:18;7.95;;;4.18;;
58242;SDS011;50118;53.232;8.252;2023-03-20T11:04:45;8.63;;;4.00;;
58242;SDS011;50118;53.232;8.252;2023-03-20T11:07:22;8.93;;;4.30;;
58242;SDS011;50118;53.232;8.252;2023-03-20T11:12:41;7.15;;;3.90;;
58242;SDS011;50118;53.232;8.252;2023-03-20T11:20:33;7.07;;;3.80;;
58242;SDS011;50118;53.232;8.252;2023-03-20T11:23:06;9.50;;;4.10;;
58242;SDS011;50118;53.232;8.252;2023-03-20T11:25:38;6.60;;;3.65;;
58242;SDS011;50118;53.232;8.252;2023-03-20T11:33:36;8.25;;;3.95;;
58242;SDS011;50118;53.232;8.252;2023-03-20T11:36:26;7.65;;;3.83;;
58242;SDS011;50118;53.232;8.252;2023-03-20T11:38:52;7.90;;;4.10;;
58242;SDS011;50118;53.232;8.252;2023-03-20T11:41:23;8.80;;;4.00;;
58242;SDS011;50118;53.232;8.252;2023-03-20T11:43:51;7.32;;;3.50;;
58242;SDS011;50118;53.232;8.252;2023-03-20T11:46:18;6.30;;;2.92;;
58242;SDS011;50118;53.232;8.252;2023-03-20T11:48:47;6.20;;;3.40;;
58242;SDS011;50118;53.232;8.252;2023-03-20T11:51:26;8.38;;;3.55;;
58242;SDS011;50118;53.232;8.252;2023-03-20T11:56:24;10.65;;;3.72;;
58242;SDS011;50118;53.232;8.252;2023-03-20T12:01:22;9.18;;;3.60;;
58242;SDS011;50118;53.232;8.252;2023-03-20T12:03:51;8.25;;;3.78;;
58242;SDS011;50118;53.232;8.252;2023-03-20T12:06:26;8.75;;;3.60;;
58242;SDS011;50118;53.232;8.252;2023-03-20T12:09:04;10.50;;;4.18;;
58242;SDS011;50118;53.232;8.252;2023-03-20T12:11:37;7.00;;;3.75;;
58242;SDS011;50118;53.232;8.252;2023-03-20T12:14:15;9.95;;;3.75;;
58242;SDS011;50118;53.232;8.252;2023-03-20T12:16:47;9.43;;;4.00;;
58242;SDS011;50118;53.232;8.252;2023-03-20T12:19:17;8.23;;;4.22;;
58242;SDS011;50118;53.232;8.252;2023-03-20T12:21:51;6.90;;;3.97;;
58242;SDS011;50118;53.232;8.252;2023-03-20T12:24:30;7.18;;;4.43;;
58242;SDS011;50118;53.232;8.252;2023-03-20T12:27:12;12.23;;;4.90;;
58242;SDS011;50118;53.232;8.252;2023-03-20T12:29:46;8.05;;;4.13;;
58242;SDS011;50118;53.232;8.252;2023-03-20T12:35:26;7.68;;;4.22;;
58242;SDS011;50118;53.232;8.252;2023-03-20T12:37:56;10.02;;;4.60;;
58242;SDS011;50118;53.232;8.252;2023-03-20T12:40:28;8.60;;;4.80;;
58242;SDS011;50118;53.232;8.252;2023-03-20T12:43:10;8.63;;;4.95;;
58242;SDS011;50118;53.232;8.252;2023-03-20T12:45:55;7.60;;;4.30;;
58242;SDS011;50118;53.232;8.252;2023-03-20T12:56:51;10.00;;;5.10;;
58242;SDS011;50118;53.232;8.252;2023-03-20T13:01:57;10.88;;;5.15;;
58242;SDS011;50118;53.232;8.252;2023-03-20T13:07:19;8.82;;;5.40;;
58242;SDS011;50118;53.232;8.252;2023-03-20T13:15:52;10.32;;;5.47;;
58242;SDS011;50118;53.232;8.252;2023-03-20T13:21:09;12.77;;;5.63;;
58242;SDS011;50118;53.232;8.252;2023-03-20T13:23:43;12.05;;;5.95;;
58242;SDS011;50118;53.232;8.252;2023-03-20T13:31:40;9.65;;;5.38;;
58242;SDS011;50118;53.232;8.252;2023-03-20T13:34:26;9.00;;;5.03;;
58242;SDS011;50118;53.232;8.252;2023-03-20T13:42:41;9.48;;;5.70;;
58242;SDS011;50118;53.232;8.252;2023-03-20T13:56:25;10.20;;;6.25;;
58242;SDS011;50118;53.232;8.252;2023-03-20T14:01:39;11.05;;;6.07;;
58242;SDS011;50118;53.232;8.252;2023-03-20T14:04:12;12.10;;;7.70;;
58242;SDS011;50118;53.232;8.252;2023-03-20T14:06:43;13.23;;;6.70;;
58242;SDS011;50118;53.232;8.252;2023-03-20T14:12:01;19.33;;;9.00;;
58242;SDS011;50118;53.232;8.252;2023-03-20T14:14:31;15.82;;;8.77;;
58242;SDS011;50118;53.232;8.252;2023-03-20T14:19:39;17.73;;;9.63;;
58242;SDS011;50118;53.232;8.252;2023-03-20T14:22:04;14.98;;;8.98;;
58242;SDS011;50118;53.232;8.252;2023-03-20T14:24:31;12.88;;;8.57;;
58242;SDS011;50118;53.232;8.252;2023-03-20T14:27:00;14.65;;;8.15;;
58242;SDS011;50118;53.232;8.252;2023-03-20T14:34:46;14.18;;;7.15;;
58242;SDS011;50118;53.232;8.252;2023-03-20T14:37:27;11.68;;;7.32;;
58242;SDS011;50118;53.232;8.252;2023-03-20T14:40:19;10.48;;;7.00;;
58242;SDS011;50118;53.232;8.252;2023-03-20T14:42:53;12.65;;;7.40;;
58242;SDS011;50118;53.232;8.252;2023-03-20T14:48:06;13.32;;;8.00;;
58242;SDS011;50118;53.232;8.252;2023-03-20T14:53:38;13.57;;;8.90;;
58242;SDS011;50118;53.232;8.252;2023-03-20T15:06:30;14.85;;;9.60;;
58242;SDS011;50118;53.232;8.252;2023-03-20T15:09:08;12.00;;;9.32;;
58242;SDS011;50118;53.232;8.252;2023-03-20T15:11:35;14.52;;;9.50;;
58242;SDS011;50118;53.232;8.252;2023-03-20T15:14:02;15.18;;;9.70;;
58242;SDS011;50118;53.232;8.252;2023-03-20T15:16:31;14.50;;;9.50;;
58242;SDS011;50118;53.232;8.252;2023-03-20T15:18:58;14.63;;;9.70;;
58242;SDS011;50118;53.232;8.252;2023-03-20T15:21:28;15.52;;;9.82;;
58242;SDS011;50118;53.232;8.252;2023-03-20T15:23:56;14.50;;;9.50;;
58242;SDS011;50118;53.232;8.252;2023-03-20T15:26:22;14.52;;;9.23;;
58242;SDS011;50118;53.232;8.252;2023-03-20T15:28:49;14.57;;;8.73;;
58242;SDS011;50118;53.232;8.252;2023-03-20T15:31:24;13.27;;;8.38;;
58242;SDS011;50118;53.232;8.252;2023-03-20T15:33:54;12.80;;;8.40;;
58242;SDS011;50118;53.232;8.252;2023-03-20T15:36:21;13.05;;;8.75;;
58242;SDS011;50118;53.232;8.252;2023-03-20T15:38:51;12.38;;;7.68;;
58242;SDS011;50118;53.232;8.252;2023-03-20T15:41:23;13.68;;;7.57;;
58242;SDS011;50118;53.232;8.252;2023-03-20T15:43:50;12.85;;;8.15;;
58242;SDS011;50118;53.232;8.252;2023-03-20T15:46:15;12.38;;;7.68;;
58242;SDS011;50118;53.232;8.252;2023-03-20T15:48:45;13.27;;;7.13;;
58242;SDS011;50118;53.232;8.252;2023-03-20T15:51:12;11.50;;;7.15;;
58242;SDS011;50118;53.232;8.252;2023-03-20T15:53:38;14.05;;;7.88;;
58242;SDS011;50118;53.232;8.252;2023-03-20T15:56:05;12.05;;;7.07;;
58242;SDS011;50118;53.232;8.252;2023-03-20T15:58:33;12.25;;;7.70;;
58242;SDS011;50118;53.232;8.252;2023-03-20T16:01:00;11.90;;;7.78;;
58242;SDS011;50118;53.232;8.252;2023-03-20T16:03:27;14.90;;;7.90;;
58242;SDS011;50118;53.232;8.252;2023-03-20T16:05:54;11.02;;;8.02;;
58242;SDS011;50118;53.232;8.252;2023-03-20T16:08:25;12.70;;;7.18;;
58242;SDS011;50118;53.232;8.252;2023-03-20T16:10:55;11.15;;;7.55;;
58242;SDS011;50118;53.232;8.252;2023-03-20T16:13:23;17.33;;;8.02;;
58242;SDS011;50118;53.232;8.252;2023-03-20T16:15:49;11.63;;;6.93;;
58242;SDS011;50118;53.232;8.252;2023-03-20T16:18:17;11.02;;;7.07;;
58242;SDS011;50118;53.232;8.252;2023-03-20T16:20:46;11.35;;;6.63;;
58242;SDS011;50118;53.232;8.252;2023-03-20T16:23:25;11.00;;;7.32;;
58242;SDS011;50118;53.232;8.252;2023-03-20T16:25:57;12.63;;;7.03;;
58242;SDS011;50118;53.232;8.252;2023-03-20T16:28:27;10.93;;;6.78;;
58242;SDS011;50118;53.232;8.252;2023-03-20T16:31:03;12.43;;;7.18;;
58242;SDS011;50118;53.232;8.252;2023-03-20T16:33:37;11.48;;;6.93;;
58242;SDS011;50118;53.232;8.252;2023-03-20T16:36:04;9.50;;;6.18;;
58242;SDS011;50118;53.232;8.252;2023-03-20T16:38:31;9.68;;;6.15;;
58242;SDS011;50118;53.232;8.252;2023-03-20T16:43:49;10.73;;;6.50;;
58242;SDS011;50118;53.232;8.252;2023-03-20T16:46:16;9.73;;;5.95;;
58242;SDS011;50118;53.232;8.252;2023-03-20T16:48:46;13.82;;;6.22;;
58242;SDS011;50118;53.232;8.252;2023-03-20T16:51:22;10.40;;;6.30;;
58242;SDS011;50118;53.232;8.252;2023-03-20T16:53:50;11.70;;;6.18;;
58242;SDS011;50118;53.232;8.252;2023-03-20T16:56:41;9.70;;;6.20;;
58242;SDS011;50118;53.232;8.252;2023-03-20T16:59:09;8.93;;;6.55;;
58242;SDS011;50118;53.232;8.252;2023-03-20T17:01:42;11.90;;;7.20;;
58242;SDS011;50118;53.232;8.252;2023-03-20T17:07:07;10.05;;;7.13;;
58242;SDS011;50118;53.232;8.252;2023-03-20T17:09:50;10.55;;;7.43;;
58242;SDS011;50118;53.232;8.252;2023-03-20T17:12:17;10.90;;;7.30;;
58242;SDS011;50118;53.232;8.252;2023-03-20T17:14:43;10.85;;;7.60;;
58242;SDS011;50118;53.232;8.252;2023-03-20T17:17:12;10.70;;;7.40;;
58242;SDS011;50118;53.232;8.252;2023-03-20T17:19:38;9.73;;;6.90;;
58242;SDS011;50118;53.232;8.252;2023-03-20T17:22:14;11.27;;;7.63;;
58242;SDS011;50118;53.232;8.252;2023-03-20T17:24:41;12.75;;;7.68;;
58242;SDS011;50118;53.232;8.252;2023-03-20T17:27:08;11.55;;;7.65;;
58242;SDS011;50118;53.232;8.252;2023-03-20T17:29:36;17.48;;;9.40;;
58242;SDS011;50118;53.232;8.252;2023-03-20T17:32:04;14.43;;;8.70;;
58242;SDS011;50118;53.232;8.252;2023-03-20T17:34:34;12.95;;;7.72;;
58242;SDS011;50118;53.232;8.252;2023-03-20T17:37:00;11.40;;;7.60;;
58242;SDS011;50118;53.232;8.252;2023-03-20T17:39:27;14.15;;;8.98;;
58242;SDS011;50118;53.232;8.252;2023-03-20T17:41:53;14.18;;;8.45;;
58242;SDS011;50118;53.232;8.252;2023-03-20T17:44:19;14.43;;;9.27;;
58242;SDS011;50118;53.232;8.252;2023-03-20T17:46:44;14.25;;;10.60;;
58242;SDS011;50118;53.232;8.252;2023-03-20T17:49:11;15.38;;;9.77;;
58242;SDS011;50118;53.232;8.252;2023-03-20T17:51:39;15.60;;;10.02;;